Time,TemperatureF,DewpointF,PressureIn,WindDirection,WindDirectionDegrees,WindSpeedMPH,WindSpeedGustMPH,Humidity,HourlyPrecipIn,Conditions,Clouds,dailyrainin,SoftwareType,DateUTC
2013-08-19 00:04:00,67.0,65.8,30.10,North,0,0.0,0.0,96,0.00,,,0.00,WUHU216DAVISVP2,2013-08-19 05:04:00,
2013-08-19 00:10:00,67.0,65.8,30.10,North,0,0.0,0.0,96,0.00,,,0.00,WUHU216DAVISVP2,2013-08-19 05:10:00,
2013-08-19 00:15:00,66.9,65.7,30.10,North,0,0.0,0.0,96,0.00,,,0.00,WUHU216DAVISVP2,2013-08-19 05:15:00,
2013-08-19 00:20:00,66.9,65.7,30.10,North,0,0.0,0.0,96,0.00,,,0.00,WUHU216DAVISVP2,2013-08-19 05:20:00,
2013-08-19 00:25:00,67.0,65.8,30.10,North,0,0.0,0.0,96,0.00,,,0.00,WUHU216DAVISVP2,2013-08-19 05:25:00,
2013-08-19 00:31:00,67.0,65.8,30.10,North,0,0.0,0.0,96,0.00,,,0.00,WUHU216DAVISVP2,2013-08-19 05:31:00,
2013-08-19 00:36:00,67.0,65.8,30.10,North,0,0.0,0.0,96,0.00,,,0.00,WUHU216DAVISVP2,2013-08-19 05:36:00,
2013-08-19 00:41:00,67.1,65.9,30.10,North,0,0.0,0.0,96,0.00,,,0.00,WUHU216DAVISVP2,2013-08-19 05:41:00,
2013-08-19 00:46:00,67.1,65.9,30.10,North,0,0.0,0.0,96,0.00,,,0.00,WUHU216DAVISVP2,2013-08-19 05:46:00,
2013-08-19 00:54:00,67.1,65.9,30.10,North,0,0.0,0.0,96,0.00,,,0.00,WUHU216DAVISVP2,2013-08-19 05:54:00,
2013-08-19 00:59:00,67.1,65.9,30.10,North,0,0.0,0.0,96,0.00,,,0.00,WUHU216DAVISVP2,2013-08-19 05:59:00,
2013-08-19 01:04:00,67.1,65.9,30.10,North,0,0.0,0.0,96,0.00,,,0.00,WUHU216DAVISVP2,2013-08-19 06:04:00,
2013-08-19 01:11:00,67.2,66.3,30.10,North,0,0.0,0.0,97,0.00,,,0.00,WUHU216DAVISVP2,2013-08-19 06:11:00,
2013-08-19 01:16:00,67.3,66.4,30.09,North,0,0.0,0.0,97,0.00,,,0.00,WUHU216DAVISVP2,2013-08-19 06:16:00,
2013-08-19 01:21:00,67.3,66.4,30.09,North,0,0.0,0.0,97,0.00,,,0.00,WUHU216DAVISVP2,2013-08-19 06:21:00,
2013-08-19 01:27:00,67.3,66.1,30.09,North,0,0.0,0.0,96,0.00,,,0.00,WUHU216DAVISVP2,2013-08-19 06:27:00,
2013-08-19 01:32:00,67.3,66.1,30.09,North,0,0.0,0.0,96,0.00,,,0.00,WUHU216DAVISVP2,2013-08-19 06:32:00,
2013-08-19 01:37:00,67.4,66.2,30.08,North,0,0.0,0.0,96,0.00,,,0.00,WUHU216DAVISVP2,2013-08-19 06:37:00,
2013-08-19 01:42:00,67.4,66.2,30.08,North,0,0.0,0.0,96,0.00,,,0.00,WUHU216DAVISVP2,2013-08-19 06:42:00,
2013-08-19 01:48:00,67.4,66.2,30.08,North,0,0.0,0.0,96,0.00,,,0.00,WUHU216DAVISVP2,2013-08-19 06:48:00,
2013-08-19 01:53:00,67.5,66.3,30.08,North,0,0.0,0.0,96,0.00,,,0.00,WUHU216DAVISVP2,2013-08-19 06:53:00,
2013-08-19 01:58:00,67.5,66.3,30.08,North,0,0.0,0.0,96,0.00,,,0.00,WUHU216DAVISVP2,2013-08-19 06:58:00,
2013-08-19 02:04:00,67.5,66.3,30.08,North,0,0.0,0.0,96,0.00,,,0.00,WUHU216DAVISVP2,2013-08-19 07:04:00,
2013-08-19 02:09:00,67.6,66.4,30.08,North,0,0.0,0.0,96,0.00,,,0.00,WUHU216DAVISVP2,2013-08-19 07:09:00,
2013-08-19 02:15:00,67.6,66.4,30.08,North,0,0.0,0.0,96,0.00,,,0.00,WUHU216DAVISVP2,2013-08-19 07:15:00,
2013-08-19 02:20:00,67.6,66.4,30.08,North,0,0.0,0.0,96,0.00,,,0.00,WUHU216DAVISVP2,2013-08-19 07:20:00,
2013-08-19 02:26:00,67.6,66.4,30.08,North,0,0.0,0.0,96,0.00,,,0.00,WUHU216DAVISVP2,2013-08-19 07:26:00,
2013-08-19 02:31:00,67.5,66.3,30.08,North,0,0.0,0.0,96,0.00,,,0.00,WUHU216DAVISVP2,2013-08-19 07:31:00,
2013-08-19 02:38:00,67.5,66.3,30.08,North,0,0.0,0.0,96,0.00,,,0.00,WUHU216DAVISVP2,2013-08-19 07:38:00,
2013-08-19 02:44:00,67.4,66.2,30.07,North,0,0.0,0.0,96,0.00,,,0.00,WUHU216DAVISVP2,2013-08-19 07:44:00,
2013-08-19 02:49:00,67.4,66.2,30.07,North,0,0.0,0.0,96,0.00,,,0.00,WUHU216DAVISVP2,2013-08-19 07:49:00,
2013-08-19 02:54:00,67.4,66.2,30.07,North,0,0.0,0.0,96,0.00,,,0.00,WUHU216DAVISVP2,2013-08-19 07:54:00,
2013-08-19 03:01:00,67.4,66.2,30.07,North,0,0.0,0.0,96,0.00,,,0.00,WUHU216DAVISVP2,2013-08-19 08:01:00,
2013-08-19 03:06:00,67.3,66.1,30.08,North,0,0.0,0.0,96,0.00,,,0.00,WUHU216DAVISVP2,2013-08-19 08:06:00,
2013-08-19 03:12:00,67.2,66.3,30.07,North,0,0.0,0.0,97,0.00,,,0.00,WUHU216DAVISVP2,2013-08-19 08:12:00,
2013-08-19 03:17:00,67.1,66.2,30.07,North,0,0.0,0.0,97,0.00,,,0.00,WUHU216DAVISVP2,2013-08-19 08:17:00,
2013-08-19 03:22:00,67.0,65.8,30.07,North,0,0.0,0.0,96,0.00,,,0.00,WUHU216DAVISVP2,2013-08-19 08:22:00,
2013-08-19 03:28:00,66.8,65.6,30.07,North,0,0.0,0.0,96,0.00,,,0.00,WUHU216DAVISVP2,2013-08-19 08:28:00,
2013-08-19 03:33:00,66.7,65.5,30.07,North,0,0.0,0.0,96,0.00,,,0.00,WUHU216DAVISVP2,2013-08-19 08:33:00,
2013-08-19 03:38:00,66.6,65.7,30.07,North,0,0.0,0.0,97,0.00,,,0.00,WUHU216DAVISVP2,2013-08-19 08:38:00,
2013-08-19 03:44:00,66.5,65.6,30.07,North,0,0.0,0.0,97,0.00,,,0.00,WUHU216DAVISVP2,2013-08-19 08:44:00,
2013-08-19 03:49:00,66.4,65.5,30.07,North,0,0.0,0.0,97,0.00,,,0.00,WUHU216DAVISVP2,2013-08-19 08:49:00,
2013-08-19 03:55:00,66.3,65.1,30.07,North,0,0.0,0.0,96,0.00,,,0.00,WUHU216DAVISVP2,2013-08-19 08:55:00,
2013-08-19 04:00:00,66.2,65.0,30.07,North,0,0.0,0.0,96,0.00,,,0.00,WUHU216DAVISVP2,2013-08-19 09:00:00,
2013-08-19 04:05:00,66.2,65.0,30.07,North,0,0.0,0.0,96,0.00,,,0.00,WUHU216DAVISVP2,2013-08-19 09:05:00,
2013-08-19 04:11:00,66.0,64.8,30.07,North,0,0.0,0.0,96,0.00,,,0.00,WUHU216DAVISVP2,2013-08-19 09:11:00,
2013-08-19 04:16:00,65.9,65.0,30.07,North,0,0.0,0.0,97,0.00,,,0.00,WUHU216DAVISVP2,2013-08-19 09:16:00,
2013-08-19 04:21:00,65.9,65.0,30.07,North,0,0.0,0.0,97,0.00,,,0.00,WUHU216DAVISVP2,2013-08-19 09:21:00,
2013-08-19 04:28:00,65.7,64.5,30.08,North,0,0.0,0.0,96,0.00,,,0.00,WUHU216DAVISVP2,2013-08-19 09:28:00,
2013-08-19 04:33:00,65.6,64.7,30.08,North,0,0.0,0.0,97,0.00,,,0.00,WUHU216DAVISVP2,2013-08-19 09:33:00,
2013-08-19 04:38:00,65.6,64.7,30.08,North,0,0.0,0.0,97,0.00,,,0.00,WUHU216DAVISVP2,2013-08-19 09:38:00,
2013-08-19 04:45:00,65.7,64.8,30.08,North,0,0.0,0.0,97,0.00,,,0.00,WUHU216DAVISVP2,2013-08-19 09:45:00,
2013-08-19 04:50:00,65.7,64.8,30.08,North,0,0.0,0.0,97,0.00,,,0.00,WUHU216DAVISVP2,2013-08-19 09:50:00,
2013-08-19 04:55:00,65.7,64.8,30.08,North,0,0.0,0.0,97,0.00,,,0.00,WUHU216DAVISVP2,2013-08-19 09:55:00,
2013-08-19 05:00:00,65.6,64.7,30.08,North,0,0.0,0.0,97,0.00,,,0.00,WUHU216DAVISVP2,2013-08-19 10:00:00,
2013-08-19 05:05:00,65.5,64.6,30.08,North,0,0.0,0.0,97,0.00,,,0.00,WUHU216DAVISVP2,2013-08-19 10:05:00,
2013-08-19 05:10:00,65.4,64.5,30.08,North,0,0.0,0.0,97,0.00,,,0.00,WUHU216DAVISVP2,2013-08-19 10:10:00,
2013-08-19 05:15:00,65.2,64.3,30.08,North,0,0.0,0.0,97,0.00,,,0.00,WUHU216DAVISVP2,2013-08-19 10:15:00,
2013-08-19 05:20:00,65.2,64.3,30.09,North,0,0.0,0.0,97,0.00,,,0.00,WUHU216DAVISVP2,2013-08-19 10:20:00,
2013-08-19 05:25:00,65.2,64.3,30.09,North,0,0.0,0.0,97,0.00,,,0.00,WUHU216DAVISVP2,2013-08-19 10:25:00,
2013-08-19 05:32:00,65.2,64.3,30.09,North,0,0.0,0.0,97,0.00,,,0.00,WUHU216DAVISVP2,2013-08-19 10:32:00,
2013-08-19 05:37:00,65.3,64.4,30.09,North,0,0.0,0.0,97,0.00,,,0.00,WUHU216DAVISVP2,2013-08-19 10:37:00,
2013-08-19 05:42:00,65.4,64.5,30.09,North,0,0.0,0.0,97,0.00,,,0.00,WUHU216DAVISVP2,2013-08-19 10:42:00,
2013-08-19 05:47:00,65.4,64.5,30.09,North,0,0.0,0.0,97,0.00,,,0.00,WUHU216DAVISVP2,2013-08-19 10:47:00,
2013-08-19 05:52:00,65.6,64.7,30.09,North,0,0.0,0.0,97,0.00,,,0.00,WUHU216DAVISVP2,2013-08-19 10:52:00,
2013-08-19 05:57:00,65.7,64.8,30.09,North,0,0.0,0.0,97,0.00,,,0.00,WUHU216DAVISVP2,2013-08-19 10:57:00,
2013-08-19 06:02:00,65.8,64.9,30.10,North,0,0.0,0.0,97,0.00,,,0.00,WUHU216DAVISVP2,2013-08-19 11:02:00,
2013-08-19 06:08:00,66.0,65.1,30.10,North,0,0.0,0.0,97,0.00,,,0.00,WUHU216DAVISVP2,2013-08-19 11:08:00,
2013-08-19 06:15:00,66.1,65.2,30.10,North,0,0.0,0.0,97,0.00,,,0.00,WUHU216DAVISVP2,2013-08-19 11:15:00,
2013-08-19 06:20:00,66.2,65.3,30.10,North,0,0.0,0.0,97,0.00,,,0.00,WUHU216DAVISVP2,2013-08-19 11:20:00,
2013-08-19 06:25:00,66.3,65.4,30.10,North,0,0.0,0.0,97,0.00,,,0.00,WUHU216DAVISVP2,2013-08-19 11:25:00,
2013-08-19 06:30:00,66.4,65.5,30.10,North,0,0.0,0.0,97,0.00,,,0.00,WUHU216DAVISVP2,2013-08-19 11:30:00,
2013-08-19 06:35:00,66.6,65.7,30.10,North,0,0.0,0.0,97,0.00,,,0.00,WUHU216DAVISVP2,2013-08-19 11:35:00,
2013-08-19 06:40:00,66.6,65.7,30.10,North,0,0.0,0.0,97,0.00,,,0.00,WUHU216DAVISVP2,2013-08-19 11:40:00,
2013-08-19 06:45:00,66.7,65.8,30.11,North,0,0.0,0.0,97,0.00,,,0.00,WUHU216DAVISVP2,2013-08-19 11:45:00,
2013-08-19 06:50:00,66.8,65.9,30.11,North,0,0.0,0.0,97,0.00,,,0.00,WUHU216DAVISVP2,2013-08-19 11:50:00,
2013-08-19 06:55:00,66.8,65.9,30.11,North,0,0.0,0.0,97,0.00,,,0.00,WUHU216DAVISVP2,2013-08-19 11:55:00,
2013-08-19 07:01:00,66.9,66.0,30.11,North,0,0.0,0.0,97,0.00,,,0.00,WUHU216DAVISVP2,2013-08-19 12:01:00,
2013-08-19 07:06:00,67.0,66.1,30.11,North,0,0.0,0.0,97,0.00,,,0.00,WUHU216DAVISVP2,2013-08-19 12:06:00,
2013-08-19 07:11:00,67.1,66.2,30.10,North,0,0.0,0.0,97,0.00,,,0.00,WUHU216DAVISVP2,2013-08-19 12:11:00,
2013-08-19 07:18:00,67.1,66.2,30.10,North,0,0.0,0.0,97,0.00,,,0.00,WUHU216DAVISVP2,2013-08-19 12:18:00,
2013-08-19 07:23:00,67.2,66.3,30.10,North,0,0.0,0.0,97,0.00,,,0.00,WUHU216DAVISVP2,2013-08-19 12:23:00,
2013-08-19 07:28:00,67.1,66.2,30.10,North,0,0.0,0.0,97,0.00,,,0.00,WUHU216DAVISVP2,2013-08-19 12:28:00,
2013-08-19 07:33:00,67.2,66.3,30.11,North,0,0.0,0.0,97,0.00,,,0.00,WUHU216DAVISVP2,2013-08-19 12:33:00,
2013-08-19 07:39:00,67.3,66.4,30.11,North,0,0.0,0.0,97,0.00,,,0.00,WUHU216DAVISVP2,2013-08-19 12:39:00,
2013-08-19 07:45:00,67.4,66.5,30.11,North,0,0.0,0.0,97,0.00,,,0.00,WUHU216DAVISVP2,2013-08-19 12:45:00,
2013-08-19 07:50:00,67.4,66.5,30.11,North,0,0.0,0.0,97,0.00,,,0.00,WUHU216DAVISVP2,2013-08-19 12:50:00,
2013-08-19 07:55:00,67.6,66.7,30.11,North,0,0.0,0.0,97,0.00,,,0.00,WUHU216DAVISVP2,2013-08-19 12:55:00,
2013-08-19 08:00:00,67.7,66.8,30.11,North,0,0.0,0.0,97,0.00,,,0.00,WUHU216DAVISVP2,2013-08-19 13:00:00,
2013-08-19 08:05:00,67.9,67.0,30.11,North,0,0.0,0.0,97,0.00,,,0.00,WUHU216DAVISVP2,2013-08-19 13:05:00,
2013-08-19 08:11:00,68.0,67.1,30.11,North,0,0.0,0.0,97,0.00,,,0.00,WUHU216DAVISVP2,2013-08-19 13:11:00,
2013-08-19 08:16:00,68.1,67.2,30.11,North,0,0.0,0.0,97,0.00,,,0.00,WUHU216DAVISVP2,2013-08-19 13:16:00,
2013-08-19 08:21:00,68.2,67.3,30.11,North,0,0.0,0.0,97,0.00,,,0.00,WUHU216DAVISVP2,2013-08-19 13:21:00,
2013-08-19 08:26:00,68.4,67.5,30.11,North,0,0.0,0.0,97,0.00,,,0.00,WUHU216DAVISVP2,2013-08-19 13:26:00,
2013-08-19 08:31:00,68.6,67.7,30.11,North,0,0.0,0.0,97,0.00,,,0.00,WUHU216DAVISVP2,2013-08-19 13:31:00,
2013-08-19 08:36:00,68.8,67.9,30.11,North,0,0.0,0.0,97,0.00,,,0.00,WUHU216DAVISVP2,2013-08-19 13:36:00,
2013-08-19 08:41:00,69.0,68.1,30.11,North,0,0.0,0.0,97,0.00,,,0.00,WUHU216DAVISVP2,2013-08-19 13:41:00,
2013-08-19 08:46:00,69.2,68.3,30.11,North,0,0.0,0.0,97,0.00,,,0.00,WUHU216DAVISVP2,2013-08-19 13:46:00,
2013-08-19 08:51:00,69.4,68.5,30.11,North,0,0.0,0.0,97,0.00,,,0.00,WUHU216DAVISVP2,2013-08-19 13:51:00,
2013-08-19 08:56:00,69.6,68.7,30.11,ENE,62,1.0,1.0,97,0.00,,,0.00,WUHU216DAVISVP2,2013-08-19 13:56:00,
2013-08-19 09:01:00,70.1,69.2,30.11,North,0,0.0,0.0,97,0.00,,,0.00,WUHU216DAVISVP2,2013-08-19 14:01:00,
2013-08-19 09:07:00,70.6,69.4,30.11,North,0,0.0,0.0,96,0.00,,,0.00,WUHU216DAVISVP2,2013-08-19 14:07:00,
2013-08-19 09:12:00,71.0,69.8,30.11,ENE,62,1.0,1.0,96,0.00,,,0.00,WUHU216DAVISVP2,2013-08-19 14:12:00,
2013-08-19 09:18:00,71.5,70.0,30.11,NE,47,1.0,1.0,95,0.00,,,0.00,WUHU216DAVISVP2,2013-08-19 14:18:00,
2013-08-19 09:23:00,71.8,69.7,30.11,NNW,332,1.0,1.0,93,0.00,,,0.00,WUHU216DAVISVP2,2013-08-19 14:23:00,
2013-08-19 09:28:00,72.1,69.6,30.12,North,0,0.0,0.0,92,0.00,,,0.00,WUHU216DAVISVP2,2013-08-19 14:28:00,
2013-08-19 09:33:00,72.5,69.7,30.12,NNW,334,1.0,1.0,91,0.00,,,0.00,WUHU216DAVISVP2,2013-08-19 14:33:00,
2013-08-19 09:39:00,72.7,69.6,30.12,North,0,0.0,0.0,90,0.00,,,0.00,WUHU216DAVISVP2,2013-08-19 14:39:00,
2013-08-19 09:44:00,72.6,69.5,30.12,North,0,0.0,0.0,90,0.00,,,0.00,WUHU216DAVISVP2,2013-08-19 14:44:00,
2013-08-19 09:50:00,72.8,69.7,30.12,North,0,0.0,0.0,90,0.00,,,0.00,WUHU216DAVISVP2,2013-08-19 14:50:00,
2013-08-19 09:55:00,73.0,69.9,30.12,North,0,0.0,0.0,90,0.00,,,0.00,WUHU216DAVISVP2,2013-08-19 14:55:00,
2013-08-19 10:01:00,73.1,69.7,30.12,North,0,0.0,0.0,89,0.00,,,0.00,WUHU216DAVISVP2,2013-08-19 15:01:00,
2013-08-19 10:06:00,73.1,69.3,30.13,SW,217,1.0,1.0,88,0.00,,,0.00,WUHU216DAVISVP2,2013-08-19 15:06:00,
2013-08-19 10:11:00,73.2,69.8,30.13,North,0,0.0,0.0,89,0.00,,,0.00,WUHU216DAVISVP2,2013-08-19 15:11:00,
2013-08-19 10:16:00,73.3,69.5,30.12,North,0,0.0,0.0,88,0.00,,,0.00,WUHU216DAVISVP2,2013-08-19 15:16:00,
2013-08-19 10:21:00,73.5,70.1,30.13,North,0,0.0,0.0,89,0.00,,,0.00,WUHU216DAVISVP2,2013-08-19 15:21:00,
2013-08-19 10:26:00,73.8,70.0,30.12,North,0,0.0,0.0,88,0.00,,,0.00,WUHU216DAVISVP2,2013-08-19 15:26:00,
2013-08-19 10:31:00,74.2,69.8,30.12,North,11,1.0,2.0,86,0.00,,,0.00,WUHU216DAVISVP2,2013-08-19 15:31:00,
2013-08-19 10:37:00,74.9,70.1,30.12,NNE,29,2.0,4.0,85,0.00,,,0.00,WUHU216DAVISVP2,2013-08-19 15:37:00,
2013-08-19 10:44:00,75.3,69.5,30.12,North,10,1.0,1.0,82,0.00,,,0.00,WUHU216DAVISVP2,2013-08-19 15:44:00,
2013-08-19 10:49:00,75.4,69.6,30.12,North,11,1.0,1.0,82,0.00,,,0.00,WUHU216DAVISVP2,2013-08-19 15:49:00,
2013-08-19 10:54:00,75.2,69.1,30.12,North,0,0.0,0.0,81,0.00,,,0.00,WUHU216DAVISVP2,2013-08-19 15:54:00,
2013-08-19 10:59:00,75.3,69.5,30.12,NNE,26,1.0,2.0,82,0.00,,,0.00,WUHU216DAVISVP2,2013-08-19 15:59:00,
2013-08-19 11:05:00,75.4,70.3,30.12,North,0,0.0,0.0,84,0.00,,,0.00,WUHU216DAVISVP2,2013-08-19 16:05:00,
2013-08-19 11:10:00,75.5,70.4,30.12,North,0,0.0,0.0,84,0.00,,,0.00,WUHU216DAVISVP2,2013-08-19 16:10:00,
2013-08-19 11:15:00,75.8,70.3,30.11,NNE,12,1.0,1.0,83,0.00,,,0.00,WUHU216DAVISVP2,2013-08-19 16:15:00,
2013-08-19 11:23:00,76.4,69.9,30.11,North,0,0.0,0.0,80,0.00,,,0.00,WUHU216DAVISVP2,2013-08-19 16:23:00,
2013-08-19 11:28:00,77.3,71.5,30.11,North,6,1.0,2.0,82,0.00,,,0.00,WUHU216DAVISVP2,2013-08-19 16:28:00,
2013-08-19 11:33:00,77.6,70.3,30.11,SSE,168,1.0,1.0,78,0.00,,,0.00,WUHU216DAVISVP2,2013-08-19 16:33:00,
2013-08-19 11:38:00,77.6,70.0,30.11,SSE,147,1.0,1.0,77,0.00,,,0.00,WUHU216DAVISVP2,2013-08-19 16:38:00,
2013-08-19 11:44:00,77.3,70.0,30.11,SE,140,1.0,1.0,78,0.00,,,0.00,WUHU216DAVISVP2,2013-08-19 16:44:00,
2013-08-19 11:49:00,77.9,70.3,30.10,NNE,32,2.0,4.0,77,0.00,,,0.00,WUHU216DAVISVP2,2013-08-19 16:49:00,
2013-08-19 11:54:00,78.2,69.8,30.10,ESE,110,1.0,1.0,75,0.00,,,0.00,WUHU216DAVISVP2,2013-08-19 16:54:00,
2013-08-19 11:59:00,78.5,69.3,30.10,ENE,74,2.0,2.0,73,0.00,,,0.00,WUHU216DAVISVP2,2013-08-19 16:59:00,
2013-08-19 12:05:00,78.7,69.9,30.10,East,89,1.0,2.0,74,0.00,,,0.00,WUHU216DAVISVP2,2013-08-19 17:05:00,
2013-08-19 12:10:00,78.7,69.1,30.10,East,83,1.0,2.0,72,0.00,,,0.00,WUHU216DAVISVP2,2013-08-19 17:10:00,
2013-08-19 12:15:00,79.4,68.6,30.10,NE,34,1.0,2.0,69,0.00,,,0.00,WUHU216DAVISVP2,2013-08-19 17:15:00,
2013-08-19 12:20:00,79.5,68.2,30.09,SSE,160,1.0,3.0,68,0.00,,,0.00,WUHU216DAVISVP2,2013-08-19 17:20:00,
2013-08-19 12:25:00,79.2,70.4,30.09,South,190,1.0,2.0,74,0.00,,,0.00,WUHU216DAVISVP2,2013-08-19 17:25:00,
2013-08-19 12:30:00,78.8,70.0,30.09,SSW,192,1.0,2.0,74,0.00,,,0.00,WUHU216DAVISVP2,2013-08-19 17:30:00,
2013-08-19 12:35:00,78.5,70.1,30.09,SSW,197,1.0,2.0,75,0.00,,,0.00,WUHU216DAVISVP2,2013-08-19 17:35:00,
2013-08-19 12:42:00,78.9,70.9,30.09,South,182,1.0,3.0,76,0.00,,,0.00,WUHU216DAVISVP2,2013-08-19 17:42:00,
2013-08-19 12:47:00,79.3,70.9,30.09,SSW,192,1.0,1.0,75,0.00,,,0.00,WUHU216DAVISVP2,2013-08-19 17:47:00,
2013-08-19 12:53:00,79.4,70.6,30.09,North,0,0.0,0.0,74,0.00,,,0.00,WUHU216DAVISVP2,2013-08-19 17:53:00,
2013-08-19 12:58:00,79.6,70.0,30.09,North,0,0.0,0.0,72,0.00,,,0.00,WUHU216DAVISVP2,2013-08-19 17:58:00,
2013-08-19 13:03:00,79.9,70.7,30.09,NNW,336,1.0,1.0,73,0.00,,,0.00,WUHU216DAVISVP2,2013-08-19 18:03:00,
2013-08-19 13:08:00,80.9,70.4,30.08,NNE,32,2.0,3.0,70,0.00,,,0.00,WUHU216DAVISVP2,2013-08-19 18:08:00,
2013-08-19 13:13:00,81.9,73.8,30.08,West,278,1.0,2.0,76,0.00,,,0.00,WUHU216DAVISVP2,2013-08-19 18:13:00,
2013-08-19 13:18:00,82.3,72.2,30.08,North,0,0.0,0.0,71,0.00,,,0.00,WUHU216DAVISVP2,2013-08-19 18:18:00,
2013-08-19 13:23:00,83.4,71.7,30.08,NNW,340,2.0,7.0,68,0.00,,,0.00,WUHU216DAVISVP2,2013-08-19 18:23:00,
2013-08-19 13:28:00,82.9,70.4,30.08,NE,36,1.0,3.0,66,0.00,,,0.00,WUHU216DAVISVP2,2013-08-19 18:28:00,
2013-08-19 13:34:00,82.1,72.0,30.08,NNW,332,1.0,3.0,71,0.00,,,0.00,WUHU216DAVISVP2,2013-08-19 18:34:00,
2013-08-19 13:39:00,81.7,70.5,30.08,North,358,2.0,4.0,69,0.00,,,0.00,WUHU216DAVISVP2,2013-08-19 18:39:00,
2013-08-19 13:44:00,81.5,71.2,30.08,NNW,344,1.0,2.0,71,0.00,,,0.00,WUHU216DAVISVP2,2013-08-19 18:44:00,
2013-08-19 13:49:00,81.8,69.8,30.07,NE,36,2.0,3.0,67,0.00,,,0.00,WUHU216DAVISVP2,2013-08-19 18:49:00,
2013-08-19 13:55:00,81.8,71.3,30.07,North,0,0.0,0.0,70,0.00,,,0.00,WUHU216DAVISVP2,2013-08-19 18:55:00,
2013-08-19 14:02:00,81.4,70.9,30.07,North,349,2.0,4.0,70,0.00,,,0.00,WUHU216DAVISVP2,2013-08-19 19:02:00,
2013-08-19 14:07:00,81.6,71.1,30.07,NE,41,2.0,3.0,70,0.00,,,0.00,WUHU216DAVISVP2,2013-08-19 19:07:00,
2013-08-19 14:12:00,82.0,69.8,30.06,NNW,344,3.0,4.0,66,0.00,,,0.00,WUHU216DAVISVP2,2013-08-19 19:12:00,
2013-08-19 14:17:00,83.3,71.0,30.06,NNE,15,2.0,4.0,66,0.00,,,0.00,WUHU216DAVISVP2,2013-08-19 19:17:00,
2013-08-19 14:22:00,83.5,69.8,30.06,South,176,1.0,3.0,63,0.00,,,0.00,WUHU216DAVISVP2,2013-08-19 19:22:00,
2013-08-19 14:27:00,83.0,70.0,30.06,NE,46,1.0,2.0,65,0.00,,,0.00,WUHU216DAVISVP2,2013-08-19 19:27:00,
2013-08-19 14:34:00,81.7,69.9,30.06,SSE,159,1.0,1.0,67,0.00,,,0.00,WUHU216DAVISVP2,2013-08-19 19:34:00,
2013-08-19 14:39:00,81.0,69.3,30.05,SSE,165,1.0,1.0,67,0.00,,,0.00,WUHU216DAVISVP2,2013-08-19 19:39:00,
2013-08-19 14:44:00,80.9,70.4,30.05,NE,54,1.0,1.0,70,0.00,,,0.00,WUHU216DAVISVP2,2013-08-19 19:44:00,
2013-08-19 14:49:00,81.0,70.1,30.05,North,0,0.0,0.0,69,0.00,,,0.00,WUHU216DAVISVP2,2013-08-19 19:49:00,
2013-08-19 14:55:00,81.9,69.9,30.05,NNE,30,1.0,2.0,67,0.00,,,0.00,WUHU216DAVISVP2,2013-08-19 19:55:00,
2013-08-19 15:01:00,82.7,69.5,30.04,ENE,71,1.0,1.0,64,0.00,,,0.00,WUHU216DAVISVP2,2013-08-19 20:01:00,
2013-08-19 15:06:00,82.8,71.2,30.04,North,358,1.0,1.0,68,0.00,,,0.00,WUHU216DAVISVP2,2013-08-19 20:06:00,
2013-08-19 15:11:00,82.7,71.3,30.04,NNE,26,2.0,3.0,68,0.00,,,0.00,WUHU216DAVISVP2,2013-08-19 20:11:00,
2013-08-19 15:16:00,82.1,72.0,30.04,SSE,155,1.0,2.0,71,0.00,,,0.00,WUHU216DAVISVP2,2013-08-19 20:16:00,
2013-08-19 15:22:00,81.5,71.0,30.04,SSW,198,2.0,4.0,70,0.00,,,0.00,WUHU216DAVISVP2,2013-08-19 20:22:00,
2013-08-19 15:27:00,81.1,71.4,30.04,SSW,199,1.0,3.0,72,0.00,,,0.00,WUHU216DAVISVP2,2013-08-19 20:27:00,
2013-08-19 15:32:00,80.9,71.2,30.04,North,0,0.0,0.0,72,0.00,,,0.00,WUHU216DAVISVP2,2013-08-19 20:32:00,
2013-08-19 15:37:00,80.9,71.6,30.04,NNW,347,2.0,4.0,73,0.00,,,0.00,WUHU216DAVISVP2,2013-08-19 20:37:00,
2013-08-19 15:43:00,81.1,70.2,30.04,North,7,2.0,3.0,69,0.00,,,0.00,WUHU216DAVISVP2,2013-08-19 20:43:00,
2013-08-19 15:49:00,81.3,70.8,30.03,NNW,346,1.0,1.0,70,0.00,,,0.00,WUHU216DAVISVP2,2013-08-19 20:49:00,
2013-08-19 15:54:00,81.5,69.3,30.04,North,1,1.0,3.0,66,0.00,,,0.00,WUHU216DAVISVP2,2013-08-19 20:54:00,
2013-08-19 16:00:00,81.9,69.0,30.03,NNE,30,2.0,4.0,65,0.00,,,0.00,WUHU216DAVISVP2,2013-08-19 21:00:00,
2013-08-19 16:05:00,81.4,70.7,30.03,North,0,0.0,0.0,70,0.00,,,0.00,WUHU216DAVISVP2,2013-08-19 21:05:00,
2013-08-19 16:11:00,80.2,71.6,30.03,North,0,0.0,0.0,75,0.00,,,0.00,WUHU216DAVISVP2,2013-08-19 21:11:00,
2013-08-19 16:16:00,79.7,71.6,30.03,North,0,0.0,0.0,76,0.00,,,0.00,WUHU216DAVISVP2,2013-08-19 21:16:00,
2013-08-19 16:21:00,79.3,71.8,30.03,North,0,0.0,0.0,78,0.00,,,0.00,WUHU216DAVISVP2,2013-08-19 21:21:00,
2013-08-19 16:26:00,79.3,71.2,30.03,North,0,0.0,0.0,76,0.00,,,0.00,WUHU216DAVISVP2,2013-08-19 21:26:00,
2013-08-19 16:32:00,79.7,70.9,30.02,ESE,119,1.0,1.0,74,0.00,,,0.00,WUHU216DAVISVP2,2013-08-19 21:32:00,
2013-08-19 16:37:00,80.1,69.7,30.02,North,0,0.0,0.0,70,0.00,,,0.00,WUHU216DAVISVP2,2013-08-19 21:37:00,
2013-08-19 16:42:00,80.1,70.9,30.02,ESE,117,1.0,1.0,73,0.00,,,0.00,WUHU216DAVISVP2,2013-08-19 21:42:00,
2013-08-19 16:47:00,79.9,68.8,30.02,ESE,117,1.0,1.0,69,0.00,,,0.00,WUHU216DAVISVP2,2013-08-19 21:47:00,
2013-08-19 16:54:00,80.2,69.8,30.02,NE,45,2.0,3.0,70,0.00,,,0.00,WUHU216DAVISVP2,2013-08-19 21:54:00,
2013-08-19 16:59:00,80.3,70.7,30.02,NNE,19,2.0,3.0,72,0.00,,,0.00,WUHU216DAVISVP2,2013-08-19 21:59:00,
2013-08-19 17:04:00,80.2,69.3,30.02,North,2,1.0,2.0,69,0.00,,,0.00,WUHU216DAVISVP2,2013-08-19 22:04:00,
2013-08-19 17:10:00,80.3,71.1,30.02,North,0,0.0,0.0,73,0.00,,,0.00,WUHU216DAVISVP2,2013-08-19 22:10:00,
2013-08-19 17:15:00,79.7,70.5,30.02,North,2,1.0,2.0,73,0.00,,,0.00,WUHU216DAVISVP2,2013-08-19 22:15:00,
2013-08-19 17:20:00,79.4,71.3,30.02,North,0,0.0,0.0,76,0.00,,,0.00,WUHU216DAVISVP2,2013-08-19 22:20:00,
2013-08-19 17:25:00,79.2,71.9,30.02,North,0,0.0,0.0,78,0.00,,,0.00,WUHU216DAVISVP2,2013-08-19 22:25:00,
2013-08-19 17:30:00,79.2,70.8,30.02,North,0,0.0,0.0,75,0.00,,,0.00,WUHU216DAVISVP2,2013-08-19 22:30:00,
2013-08-19 17:35:00,79.1,70.7,30.02,North,0,0.0,0.0,75,0.00,,,0.00,WUHU216DAVISVP2,2013-08-19 22:35:00,
2013-08-19 17:42:00,79.0,70.2,30.02,North,0,0.0,0.0,74,0.00,,,0.00,WUHU216DAVISVP2,2013-08-19 22:42:00,
2013-08-19 17:48:00,78.9,71.2,30.02,West,273,1.0,1.0,77,0.00,,,0.00,WUHU216DAVISVP2,2013-08-19 22:48:00,
2013-08-19 17:53:00,78.6,72.0,30.02,West,267,1.0,1.0,80,0.00,,,0.00,WUHU216DAVISVP2,2013-08-19 22:53:00,
2013-08-19 17:58:00,78.1,71.9,30.02,North,0,0.0,0.0,81,0.00,,,0.00,WUHU216DAVISVP2,2013-08-19 22:58:00,
2013-08-19 18:03:00,77.8,71.6,30.02,WSW,242,1.0,1.0,81,0.00,,,0.00,WUHU216DAVISVP2,2013-08-19 23:03:00,
2013-08-19 18:08:00,77.7,71.8,30.02,North,0,0.0,0.0,82,0.00,,,0.00,WUHU216DAVISVP2,2013-08-19 23:08:00,
2013-08-19 18:13:00,77.5,72.0,30.02,North,0,0.0,0.0,83,0.00,,,0.00,WUHU216DAVISVP2,2013-08-19 23:13:00,
2013-08-19 18:18:00,77.4,72.6,30.02,North,0,0.0,0.0,85,0.00,,,0.00,WUHU216DAVISVP2,2013-08-19 23:18:00,
2013-08-19 18:24:00,77.1,71.6,30.02,North,0,0.0,0.0,83,0.00,,,0.00,WUHU216DAVISVP2,2013-08-19 23:24:00,
2013-08-19 18:29:00,76.9,71.4,30.02,North,0,0.0,0.0,83,0.00,,,0.00,WUHU216DAVISVP2,2013-08-19 23:29:00,
2013-08-19 18:35:00,76.7,71.8,30.02,North,0,0.0,0.0,85,0.00,,,0.00,WUHU216DAVISVP2,2013-08-19 23:35:00,
2013-08-19 18:40:00,76.5,72.0,30.02,North,0,0.0,0.0,86,0.00,,,0.00,WUHU216DAVISVP2,2013-08-19 23:40:00,
2013-08-19 18:45:00,76.4,71.9,30.02,SW,234,1.0,1.0,86,0.00,,,0.00,WUHU216DAVISVP2,2013-08-19 23:45:00,
2013-08-19 18:51:00,76.2,72.0,30.02,North,0,0.0,0.0,87,0.00,,,0.00,WUHU216DAVISVP2,2013-08-19 23:51:00,
2013-08-19 18:57:00,76.0,72.2,30.02,North,0,0.0,0.0,88,0.00,,,0.00,WUHU216DAVISVP2,2013-08-19 23:57:00,
2013-08-19 19:02:00,75.8,72.0,30.02,North,0,0.0,0.0,88,0.00,,,0.00,WUHU216DAVISVP2,2013-08-20 00:02:00,
2013-08-19 19:07:00,75.6,71.8,30.02,North,0,0.0,0.0,88,0.00,,,0.00,WUHU216DAVISVP2,2013-08-20 00:07:00,
2013-08-19 19:12:00,75.4,71.6,30.03,North,0,0.0,0.0,88,0.00,,,0.00,WUHU216DAVISVP2,2013-08-20 00:12:00,
2013-08-19 19:17:00,75.3,71.5,30.03,North,0,0.0,0.0,88,0.00,,,0.00,WUHU216DAVISVP2,2013-08-20 00:17:00,
2013-08-19 19:22:00,75.2,71.7,30.03,North,0,0.0,0.0,89,0.00,,,0.00,WUHU216DAVISVP2,2013-08-20 00:22:00,
2013-08-19 19:27:00,74.9,71.4,30.03,North,0,0.0,0.0,89,0.00,,,0.00,WUHU216DAVISVP2,2013-08-20 00:27:00,
2013-08-19 19:35:00,74.6,70.8,30.03,North,0,0.0,0.0,88,0.00,,,0.00,WUHU216DAVISVP2,2013-08-20 00:35:00,
2013-08-19 19:40:00,74.5,71.0,30.03,North,0,0.0,0.0,89,0.00,,,0.00,WUHU216DAVISVP2,2013-08-20 00:40:00,
2013-08-19 19:45:00,74.4,70.9,30.03,North,0,0.0,0.0,89,0.00,,,0.00,WUHU216DAVISVP2,2013-08-20 00:45:00,
2013-08-19 19:51:00,74.2,70.7,30.03,North,0,0.0,0.0,89,0.00,,,0.00,WUHU216DAVISVP2,2013-08-20 00:51:00,
2013-08-19 19:56:00,74.0,70.5,30.03,North,0,0.0,0.0,89,0.00,,,0.00,WUHU216DAVISVP2,2013-08-20 00:56:00,
2013-08-19 20:01:00,73.7,70.3,30.03,North,0,0.0,0.0,89,0.00,,,0.00,WUHU216DAVISVP2,2013-08-20 01:01:00,
2013-08-19 20:06:00,73.7,70.3,30.03,North,0,0.0,0.0,89,0.00,,,0.00,WUHU216DAVISVP2,2013-08-20 01:06:00,
2013-08-19 20:11:00,73.6,70.2,30.03,North,0,0.0,0.0,89,0.00,,,0.00,WUHU216DAVISVP2,2013-08-20 01:11:00,
2013-08-19 20:16:00,73.6,70.2,30.03,North,0,0.0,0.0,89,0.00,,,0.00,WUHU216DAVISVP2,2013-08-20 01:16:00,
2013-08-19 20:22:00,73.4,69.6,30.04,SW,233,1.0,1.0,88,0.00,,,0.00,WUHU216DAVISVP2,2013-08-20 01:22:00,
2013-08-19 20:27:00,73.5,70.1,30.04,SW,236,1.0,1.0,89,0.00,,,0.00,WUHU216DAVISVP2,2013-08-20 01:27:00,
2013-08-19 20:33:00,73.6,70.2,30.04,WSW,249,1.0,1.0,89,0.00,,,0.00,WUHU216DAVISVP2,2013-08-20 01:33:00,
2013-08-19 20:39:00,73.8,70.7,30.04,West,264,1.0,1.0,90,0.00,,,0.00,WUHU216DAVISVP2,2013-08-20 01:39:00,
2013-08-19 20:44:00,74.0,70.6,30.04,West,264,1.0,1.0,89,0.00,,,0.00,WUHU216DAVISVP2,2013-08-20 01:44:00,
2013-08-19 20:50:00,74.2,70.7,30.05,North,0,0.0,0.0,89,0.00,,,0.00,WUHU216DAVISVP2,2013-08-20 01:50:00,
2013-08-19 20:55:00,74.3,71.2,30.05,SSE,160,1.0,1.0,90,0.00,,,0.00,WUHU216DAVISVP2,2013-08-20 01:55:00,
2013-08-19 21:00:00,74.2,71.1,30.05,North,0,0.0,0.0,90,0.00,,,0.00,WUHU216DAVISVP2,2013-08-20 02:00:00,
2013-08-19 21:06:00,74.0,70.9,30.05,South,171,1.0,2.0,90,0.00,,,0.00,WUHU216DAVISVP2,2013-08-20 02:06:00,
2013-08-19 21:11:00,74.2,70.7,30.05,South,180,1.0,4.0,89,0.00,,,0.00,WUHU216DAVISVP2,2013-08-20 02:11:00,
2013-08-19 21:17:00,74.3,70.8,30.05,SSW,193,1.0,1.0,89,0.00,,,0.00,WUHU216DAVISVP2,2013-08-20 02:17:00,
2013-08-19 21:22:00,74.4,70.6,30.05,SSE,162,1.0,1.0,88,0.00,,,0.00,WUHU216DAVISVP2,2013-08-20 02:22:00,
2013-08-19 21:29:00,74.5,70.7,30.05,North,0,0.0,0.0,88,0.00,,,0.00,WUHU216DAVISVP2,2013-08-20 02:29:00,
2013-08-19 21:34:00,74.5,71.0,30.05,North,0,0.0,0.0,89,0.00,,,0.00,WUHU216DAVISVP2,2013-08-20 02:34:00,
2013-08-19 21:39:00,74.4,70.9,30.05,North,0,0.0,0.0,89,0.00,,,0.00,WUHU216DAVISVP2,2013-08-20 02:39:00,
2013-08-19 21:44:00,74.2,70.7,30.05,North,0,0.0,0.0,89,0.00,,,0.00,WUHU216DAVISVP2,2013-08-20 02:44:00,
2013-08-19 21:50:00,74.1,71.0,30.05,North,0,0.0,0.0,90,0.00,,,0.00,WUHU216DAVISVP2,2013-08-20 02:50:00,
2013-08-19 21:55:00,74.0,70.9,30.05,North,0,0.0,0.0,90,0.00,,,0.00,WUHU216DAVISVP2,2013-08-20 02:55:00,
2013-08-19 22:00:00,73.8,70.7,30.05,North,0,0.0,0.0,90,0.00,,,0.00,WUHU216DAVISVP2,2013-08-20 03:00:00,
2013-08-19 22:05:00,73.7,70.9,30.06,North,0,0.0,0.0,91,0.00,,,0.00,WUHU216DAVISVP2,2013-08-20 03:05:00,
2013-08-19 22:11:00,73.5,70.7,30.06,North,0,0.0,0.0,91,0.00,,,0.00,WUHU216DAVISVP2,2013-08-20 03:11:00,
2013-08-19 22:17:00,73.4,70.6,30.06,North,0,0.0,0.0,91,0.00,,,0.00,WUHU216DAVISVP2,2013-08-20 03:17:00,
2013-08-19 22:22:00,73.3,70.5,30.06,North,0,0.0,0.0,91,0.00,,,0.00,WUHU216DAVISVP2,2013-08-20 03:22:00,
2013-08-19 22:27:00,73.2,70.4,30.06,North,0,0.0,0.0,91,0.00,,,0.00,WUHU216DAVISVP2,2013-08-20 03:27:00,
2013-08-19 22:32:00,73.1,70.3,30.06,North,0,0.0,0.0,91,0.00,,,0.00,WUHU216DAVISVP2,2013-08-20 03:32:00,
2013-08-19 22:37:00,73.1,70.3,30.06,North,0,0.0,0.0,91,0.00,,,0.00,WUHU216DAVISVP2,2013-08-20 03:37:00,
2013-08-19 22:42:00,73.1,70.3,30.06,North,0,0.0,0.0,91,0.00,,,0.00,WUHU216DAVISVP2,2013-08-20 03:42:00,
2013-08-19 22:47:00,73.1,70.3,30.06,North,0,0.0,0.0,91,0.00,,,0.00,WUHU216DAVISVP2,2013-08-20 03:47:00,
2013-08-19 22:52:00,73.0,70.5,30.06,North,0,0.0,0.0,92,0.00,,,0.00,WUHU216DAVISVP2,2013-08-20 03:52:00,
2013-08-19 22:57:00,73.0,70.2,30.06,North,0,0.0,0.0,91,0.00,,,0.00,WUHU216DAVISVP2,2013-08-20 03:57:00,
2013-08-19 23:02:00,72.9,70.1,30.06,North,0,0.0,0.0,91,0.00,,,0.00,WUHU216DAVISVP2,2013-08-20 04:02:00,
2013-08-19 23:07:00,73.0,70.5,30.06,North,0,0.0,0.0,92,0.00,,,0.00,WUHU216DAVISVP2,2013-08-20 04:07:00,
2013-08-19 23:12:00,72.9,70.4,30.06,North,0,0.0,0.0,92,0.00,,,0.00,WUHU216DAVISVP2,2013-08-20 04:12:00,
2013-08-19 23:18:00,72.8,70.3,30.06,North,0,0.0,0.0,92,0.00,,,0.00,WUHU216DAVISVP2,2013-08-20 04:18:00,
2013-08-19 23:23:00,72.8,70.3,30.06,North,0,0.0,0.0,92,0.00,,,0.00,WUHU216DAVISVP2,2013-08-20 04:23:00,
2013-08-19 23:28:00,72.7,70.2,30.06,North,0,0.0,0.0,92,0.00,,,0.00,WUHU216DAVISVP2,2013-08-20 04:28:00,
2013-08-19 23:34:00,72.7,70.2,30.06,North,0,0.0,0.0,92,0.00,,,0.00,WUHU216DAVISVP2,2013-08-20 04:34:00,
2013-08-19 23:39:00,72.7,70.5,30.06,North,0,0.0,0.0,93,0.00,,,0.00,WUHU216DAVISVP2,2013-08-20 04:39:00,
2013-08-19 23:44:00,72.6,70.4,30.06,North,0,0.0,0.0,93,0.00,,,0.00,WUHU216DAVISVP2,2013-08-20 04:44:00,
2013-08-19 23:49:00,72.6,70.4,30.06,North,0,0.0,0.0,93,0.00,,,0.00,WUHU216DAVISVP2,2013-08-20 04:49:00,
2013-08-19 23:55:00,72.5,70.3,30.06,North,0,0.0,0.0,93,0.00,,,0.00,WUHU216DAVISVP2,2013-08-20 04:55:00,